Airfield :
LOGIN :

Register | Disclaimer

   EN    FR    IT 

 










Legend :    VFR   Marginal VFR   IFR   Intensive IFR   Very Intensive IFR
Visi :
Ceiling :
>= 8 km
>= 3000ft
5 to 8 km
1000 to 3000 ft
1500m to 5 km
500 to 1000 ft
800 to 1500m
200 to 500 ft
< 800m
< 200 ft
Symbols :   Thunderstorms  Fog  Heavy snow  Heavy precipitations  Wind > 20 kt
SIGMETs :     Misc.  Thunderstorms  Icing  Turbulence  Mountain Waves  Volcanic Ashes






- Airport Elevation : 33 ft
- IATA code : MHZ


EGUN - RAF Mildenhall

CURRENT METAR :
  • 200005Z 32013G18KT 9999 FEW029 BKN044 BKN050 05/M00 A3022 RMK AO2A SLP237 $

EXPIRED METARs :
  • 192355Z 31010KT 9999 SCT042 BKN055 05/M00 A3022 RMK AO2A SLP237 T00471005 10091 20042 401430042 52014 $
  • 192255Z 32008KT 9999 FEW037 SCT055 06/01 A3021 RMK AO2A SLP233 T00580009 $
  • 192155Z 35013G20KT 9999 FEW080 07/01 A3020 RMK AO2A SLP230 T00690010 $
  • 192055Z 35010KT 9999 FEW080 07/01 A3018 RMK AO2A SLP223 T00650006 52026 $
  • 191955Z 36014G21KT 9999 SCT050 BKN080 08/01 A3015 RMK AO2A SLP213 T00800014 $

TAF TAF EGUN
Valid from the 19 at 20:00 until the 21 at 02:00 UTC


192003Z 1920/2102 35012G18KT 9999 SCT040 BKN080 QNH3015INS
TEMPO 1920/1924 35012G20KT
BECMG 2004/2005 32010G15KT 9999 BKN030 BKN050 QNH3027INS
BECMG 2006/2007 33012G22KT 9999 BKN030 BKN050 510003 QNH3031INS
BECMG 2013/2014 36014G24KT 9999 SCT040 BKN060 510003 QNH3036INS
BECMG 2017/2018 36012G18KT 9999 SCT050 BKN100 QNH3037INS
BECMG 2020/2021 35009KT 9999 FEW020 BKN050 BKN080 QNH3037INS TX10/2013Z TN02/2005Z



MET'MAP, your aeronautical weather chart ! - Copyright ORBIFLY December 2007 - Disclaimer

ORBIFLY MET'MAP TEAM :

Programming & Development : Alexandra Zaïnal
Original concept : Baudouin d'Aumeries
Technical & hardware support : Manuel Goepfert
Assistance : Marc-Olivier Méhu




SOURCES & CREDITS :

   NOAA